sensor_id;sensor_type;location;lat;lon;timestamp;P1;durP1;ratioP1;P2;durP2;ratioP2
18280;SDS011;9266;51.132;17.062;2022-09-09T06:54:56;9.38;;;5.40;;
18280;SDS011;9266;51.132;17.062;2022-09-09T06:57:23;9.90;;;6.43;;
18280;SDS011;9266;51.132;17.062;2022-09-09T06:59:50;9.55;;;5.82;;
18280;SDS011;9266;51.132;17.062;2022-09-09T07:02:17;5.65;;;4.68;;
18280;SDS011;9266;51.132;17.062;2022-09-09T07:04:45;5.72;;;5.20;;
18280;SDS011;9266;51.132;17.062;2022-09-09T07:07:12;5.30;;;4.82;;
18280;SDS011;9266;51.132;17.062;2022-09-09T07:09:40;7.70;;;4.75;;
18280;SDS011;9266;51.132;17.062;2022-09-09T07:12:09;11.00;;;4.55;;
18280;SDS011;9266;51.132;17.062;2022-09-09T07:14:36;8.73;;;4.90;;
18280;SDS011;9266;51.132;17.062;2022-09-09T07:17:03;8.18;;;3.67;;
18280;SDS011;9266;51.132;17.062;2022-09-09T07:19:30;3.85;;;2.95;;
18280;SDS011;9266;51.132;17.062;2022-09-09T07:21:57;6.10;;;3.20;;
18280;SDS011;9266;51.132;17.062;2022-09-09T07:24:24;5.70;;;3.13;;
18280;SDS011;9266;51.132;17.062;2022-09-09T07:26:51;5.78;;;3.00;;
18280;SDS011;9266;51.132;17.062;2022-09-09T07:29:19;4.15;;;2.90;;
18280;SDS011;9266;51.132;17.062;2022-09-09T07:31:46;4.43;;;3.10;;
18280;SDS011;9266;51.132;17.062;2022-09-09T07:34:13;6.28;;;3.15;;
18280;SDS011;9266;51.132;17.062;2022-09-09T07:36:40;4.95;;;3.03;;
18280;SDS011;9266;51.132;17.062;2022-09-09T07:39:09;6.57;;;2.92;;
18280;SDS011;9266;51.132;17.062;2022-09-09T07:41:39;3.63;;;3.00;;
18280;SDS011;9266;51.132;17.062;2022-09-09T07:44:08;6.97;;;2.97;;
18280;SDS011;9266;51.132;17.062;2022-09-09T07:46:38;3.55;;;2.72;;
18280;SDS011;9266;51.132;17.062;2022-09-09T07:49:07;5.93;;;2.90;;
18280;SDS011;9266;51.132;17.062;2022-09-09T07:51:35;5.40;;;3.20;;
18280;SDS011;9266;51.132;17.062;2022-09-09T07:54:04;4.90;;;2.88;;
18280;SDS011;9266;51.132;17.062;2022-09-09T07:56:33;4.57;;;2.80;;
18280;SDS011;9266;51.132;17.062;2022-09-09T07:59:00;3.85;;;2.70;;
18280;SDS011;9266;51.132;17.062;2022-09-09T08:01:30;6.05;;;2.58;;
18280;SDS011;9266;51.132;17.062;2022-09-09T08:04:01;4.60;;;2.50;;
18280;SDS011;9266;51.132;17.062;2022-09-09T08:06:33;7.80;;;2.78;;
18280;SDS011;9266;51.132;17.062;2022-09-09T08:09:02;6.88;;;2.33;;
18280;SDS011;9266;51.132;17.062;2022-09-09T08:11:31;5.55;;;2.30;;
18280;SDS011;9266;51.132;17.062;2022-09-09T08:14:01;5.43;;;2.45;;
18280;SDS011;9266;51.132;17.062;2022-09-09T08:16:29;5.60;;;2.47;;
18280;SDS011;9266;51.132;17.062;2022-09-09T08:18:58;3.70;;;2.40;;
18280;SDS011;9266;51.132;17.062;2022-09-09T08:21:28;5.63;;;2.50;;
18280;SDS011;9266;51.132;17.062;2022-09-09T08:23:57;5.10;;;2.38;;
18280;SDS011;9266;51.132;17.062;2022-09-09T08:26:26;4.72;;;2.40;;
18280;SDS011;9266;51.132;17.062;2022-09-09T08:28:54;7.50;;;2.33;;
18280;SDS011;9266;51.132;17.062;2022-09-09T08:31:23;3.92;;;2.30;;
18280;SDS011;9266;51.132;17.062;2022-09-09T08:33:53;7.32;;;2.40;;
18280;SDS011;9266;51.132;17.062;2022-09-09T08:36:22;4.43;;;2.40;;
18280;SDS011;9266;51.132;17.062;2022-09-09T08:38:51;4.65;;;2.35;;
18280;SDS011;9266;51.132;17.062;2022-09-09T08:41:28;6.40;;;2.10;;
18280;SDS011;9266;51.132;17.062;2022-09-09T08:44:07;3.70;;;2.00;;
18280;SDS011;9266;51.132;17.062;2022-09-09T08:46:42;3.40;;;1.95;;
18280;SDS011;9266;51.132;17.062;2022-09-09T08:49:18;6.72;;;2.53;;
18280;SDS011;9266;51.132;17.062;2022-09-09T08:52:06;7.63;;;2.30;;
18280;SDS011;9266;51.132;17.062;2022-09-09T08:54:41;3.72;;;2.10;;
18280;SDS011;9266;51.132;17.062;2022-09-09T08:57:11;4.78;;;2.47;;
18280;SDS011;9266;51.132;17.062;2022-09-09T08:59:42;5.90;;;2.35;;
18280;SDS011;9266;51.132;17.062;2022-09-09T09:02:13;5.68;;;2.10;;
18280;SDS011;9266;51.132;17.062;2022-09-09T09:04:51;2.85;;;1.67;;
18280;SDS011;9266;51.132;17.062;2022-09-09T09:07:31;3.33;;;1.83;;
18280;SDS011;9266;51.132;17.062;2022-09-09T09:10:10;3.28;;;1.90;;
18280;SDS011;9266;51.132;17.062;2022-09-09T09:12:44;4.32;;;2.13;;
18280;SDS011;9266;51.132;17.062;2022-09-09T09:15:16;3.40;;;1.80;;
18280;SDS011;9266;51.132;17.062;2022-09-09T09:17:47;5.32;;;2.40;;
18280;SDS011;9266;51.132;17.062;2022-09-09T09:20:15;2.70;;;2.03;;
18280;SDS011;9266;51.132;17.062;2022-09-09T09:22:47;3.92;;;2.20;;
18280;SDS011;9266;51.132;17.062;2022-09-09T09:25:17;5.72;;;2.58;;
18280;SDS011;9266;51.132;17.062;2022-09-09T09:27:47;6.43;;;2.30;;
18280;SDS011;9266;51.132;17.062;2022-09-09T09:30:22;3.93;;;2.93;;
18280;SDS011;9266;51.132;17.062;2022-09-09T09:32:52;4.35;;;2.90;;
18280;SDS011;9266;51.132;17.062;2022-09-09T09:35:26;4.43;;;2.40;;
18280;SDS011;9266;51.132;17.062;2022-09-09T09:37:54;4.10;;;2.40;;
18280;SDS011;9266;51.132;17.062;2022-09-09T09:40:22;4.30;;;2.20;;
18280;SDS011;9266;51.132;17.062;2022-09-09T09:42:51;2.80;;;2.30;;
18280;SDS011;9266;51.132;17.062;2022-09-09T09:45:26;4.22;;;2.67;;
18280;SDS011;9266;51.132;17.062;2022-09-09T09:48:00;3.05;;;2.00;;
18280;SDS011;9266;51.132;17.062;2022-09-09T09:50:28;4.20;;;2.05;;
18280;SDS011;9266;51.132;17.062;2022-09-09T09:52:58;4.50;;;2.50;;
18280;SDS011;9266;51.132;17.062;2022-09-09T09:55:29;3.27;;;2.40;;
18280;SDS011;9266;51.132;17.062;2022-09-09T09:58:03;5.57;;;2.70;;
18280;SDS011;9266;51.132;17.062;2022-09-09T10:00:31;3.67;;;2.13;;
18280;SDS011;9266;51.132;17.062;2022-09-09T10:03:01;4.63;;;2.25;;
18280;SDS011;9266;51.132;17.062;2022-09-09T10:05:38;4.95;;;3.42;;
18280;SDS011;9266;51.132;17.062;2022-09-09T10:08:14;4.73;;;2.67;;
18280;SDS011;9266;51.132;17.062;2022-09-09T10:10:47;7.13;;;3.03;;
18280;SDS011;9266;51.132;17.062;2022-09-09T10:13:25;3.65;;;2.45;;
18280;SDS011;9266;51.132;17.062;2022-09-09T10:16:01;3.47;;;2.20;;
18280;SDS011;9266;51.132;17.062;2022-09-09T10:18:40;3.38;;;2.13;;
18280;SDS011;9266;51.132;17.062;2022-09-09T10:21:16;4.32;;;2.70;;
18280;SDS011;9266;51.132;17.062;2022-09-09T10:23:59;7.78;;;2.30;;
18280;SDS011;9266;51.132;17.062;2022-09-09T10:26:43;3.67;;;2.10;;
18280;SDS011;9266;51.132;17.062;2022-09-09T10:29:23;3.63;;;1.67;;
18280;SDS011;9266;51.132;17.062;2022-09-09T10:32:05;4.57;;;1.95;;
18280;SDS011;9266;51.132;17.062;2022-09-09T10:34:55;4.07;;;2.00;;
18280;SDS011;9266;51.132;17.062;2022-09-09T10:37:31;3.42;;;2.10;;
18280;SDS011;9266;51.132;17.062;2022-09-09T10:40:15;2.83;;;1.90;;
18280;SDS011;9266;51.132;17.062;2022-09-09T10:42:56;2.72;;;1.98;;
18280;SDS011;9266;51.132;17.062;2022-09-09T10:45:39;4.78;;;2.47;;
18280;SDS011;9266;51.132;17.062;2022-09-09T10:48:18;3.35;;;2.03;;
18280;SDS011;9266;51.132;17.062;2022-09-09T10:51:13;3.40;;;2.35;;
18280;SDS011;9266;51.132;17.062;2022-09-09T10:53:53;2.65;;;1.70;;
18280;SDS011;9266;51.132;17.062;2022-09-09T10:56:33;5.10;;;2.45;;
18280;SDS011;9266;51.132;17.062;2022-09-09T10:59:02;6.45;;;2.50;;
18280;SDS011;9266;51.132;17.062;2022-09-09T11:01:34;6.97;;;6.15;;
18280;SDS011;9266;51.132;17.062;2022-09-09T11:04:08;3.92;;;2.92;;
18280;SDS011;9266;51.132;17.062;2022-09-09T11:06:38;3.40;;;1.70;;
18280;SDS011;9266;51.132;17.062;2022-09-09T11:09:12;5.47;;;1.98;;
18280;SDS011;9266;51.132;17.062;2022-09-09T11:11:44;4.30;;;2.30;;
18280;SDS011;9266;51.132;17.062;2022-09-09T11:14:19;6.78;;;2.90;;
18280;SDS011;9266;51.132;17.062;2022-09-09T11:16:50;4.90;;;2.85;;
18280;SDS011;9266;51.132;17.062;2022-09-09T11:19:21;3.53;;;2.10;;
18280;SDS011;9266;51.132;17.062;2022-09-09T11:21:54;4.57;;;2.20;;
18280;SDS011;9266;51.132;17.062;2022-09-09T11:24:23;7.30;;;3.22;;
18280;SDS011;9266;51.132;17.062;2022-09-09T11:26:58;3.05;;;2.00;;
18280;SDS011;9266;51.132;17.062;2022-09-09T11:35:21;2.60;;;2.20;;
18280;SDS011;9266;51.132;17.062;2022-09-09T11:38:07;2.63;;;1.98;;
18280;SDS011;9266;51.132;17.062;2022-09-09T11:40:45;5.65;;;2.38;;
18280;SDS011;9266;51.132;17.062;2022-09-09T11:43:15;4.25;;;2.15;;
18280;SDS011;9266;51.132;17.062;2022-09-09T11:45:50;2.63;;;1.70;;
18280;SDS011;9266;51.132;17.062;2022-09-09T11:48:23;3.10;;;1.60;;
18280;SDS011;9266;51.132;17.062;2022-09-09T11:50:58;3.42;;;1.80;;
18280;SDS011;9266;51.132;17.062;2022-09-09T11:53:28;6.38;;;1.95;;
18280;SDS011;9266;51.132;17.062;2022-09-09T11:56:11;4.40;;;1.90;;
18280;SDS011;9266;51.132;17.062;2022-09-09T11:58:44;3.45;;;2.53;;
18280;SDS011;9266;51.132;17.062;2022-09-09T12:01:26;4.55;;;2.88;;
18280;SDS011;9266;51.132;17.062;2022-09-09T12:04:01;3.55;;;2.00;;
18280;SDS011;9266;51.132;17.062;2022-09-09T12:06:42;4.53;;;1.95;;
18280;SDS011;9266;51.132;17.062;2022-09-09T12:09:15;4.32;;;2.10;;
18280;SDS011;9266;51.132;17.062;2022-09-09T12:11:49;6.90;;;4.10;;
18280;SDS011;9266;51.132;17.062;2022-09-09T12:14:22;7.65;;;2.90;;
18280;SDS011;9266;51.132;17.062;2022-09-09T12:17:09;3.47;;;2.13;;
18280;SDS011;9266;51.132;17.062;2022-09-09T12:19:43;2.28;;;1.65;;
18280;SDS011;9266;51.132;17.062;2022-09-09T12:22:13;7.85;;;4.60;;
18280;SDS011;9266;51.132;17.062;2022-09-09T12:24:51;3.90;;;2.08;;
18280;SDS011;9266;51.132;17.062;2022-09-09T12:27:23;5.15;;;3.90;;
18280;SDS011;9266;51.132;17.062;2022-09-09T12:29:58;4.43;;;3.38;;
18280;SDS011;9266;51.132;17.062;2022-09-09T12:32:29;3.28;;;2.33;;
18280;SDS011;9266;51.132;17.062;2022-09-09T12:34:57;2.85;;;2.15;;
18280;SDS011;9266;51.132;17.062;2022-09-09T12:37:28;5.00;;;2.08;;
18280;SDS011;9266;51.132;17.062;2022-09-09T12:40:00;1.95;;;1.58;;
18280;SDS011;9266;51.132;17.062;2022-09-09T12:42:29;2.13;;;1.70;;
18280;SDS011;9266;51.132;17.062;2022-09-09T12:45:00;2.63;;;1.75;;
18280;SDS011;9266;51.132;17.062;2022-09-09T12:47:33;2.78;;;1.85;;
18280;SDS011;9266;51.132;17.062;2022-09-09T12:50:12;3.03;;;1.70;;
18280;SDS011;9266;51.132;17.062;2022-09-09T12:52:44;2.22;;;1.80;;
18280;SDS011;9266;51.132;17.062;2022-09-09T12:55:16;4.28;;;2.50;;
18280;SDS011;9266;51.132;17.062;2022-09-09T12:57:46;5.03;;;2.80;;
18280;SDS011;9266;51.132;17.062;2022-09-09T13:00:18;2.80;;;1.73;;
18280;SDS011;9266;51.132;17.062;2022-09-09T13:02:48;2.28;;;1.67;;
18280;SDS011;9266;51.132;17.062;2022-09-09T13:05:18;1.55;;;1.45;;
18280;SDS011;9266;51.132;17.062;2022-09-09T13:07:47;3.03;;;1.80;;
18280;SDS011;9266;51.132;17.062;2022-09-09T13:10:18;8.77;;;4.00;;
18280;SDS011;9266;51.132;17.062;2022-09-09T13:12:49;4.65;;;3.60;;
18280;SDS011;9266;51.132;17.062;2022-09-09T13:15:19;6.70;;;4.80;;
18280;SDS011;9266;51.132;17.062;2022-09-09T13:17:50;3.72;;;2.28;;
18280;SDS011;9266;51.132;17.062;2022-09-09T13:20:20;5.63;;;2.67;;
18280;SDS011;9266;51.132;17.062;2022-09-09T13:22:49;6.70;;;2.25;;
18280;SDS011;9266;51.132;17.062;2022-09-09T13:25:20;5.15;;;2.17;;
18280;SDS011;9266;51.132;17.062;2022-09-09T13:27:52;6.90;;;2.38;;
18280;SDS011;9266;51.132;17.062;2022-09-09T13:30:27;4.85;;;2.10;;
18280;SDS011;9266;51.132;17.062;2022-09-09T13:33:00;3.03;;;1.88;;
18280;SDS011;9266;51.132;17.062;2022-09-09T13:35:32;3.25;;;2.20;;
18280;SDS011;9266;51.132;17.062;2022-09-09T13:38:06;4.20;;;1.98;;
18280;SDS011;9266;51.132;17.062;2022-09-09T13:40:35;3.47;;;1.80;;
18280;SDS011;9266;51.132;17.062;2022-09-09T13:43:02;2.97;;;1.70;;
18280;SDS011;9266;51.132;17.062;2022-09-09T13:45:31;4.85;;;2.05;;
18280;SDS011;9266;51.132;17.062;2022-09-09T13:48:07;2.67;;;1.90;;
18280;SDS011;9266;51.132;17.062;2022-09-09T13:50:37;2.33;;;1.77;;
18280;SDS011;9266;51.132;17.062;2022-09-09T13:53:04;1.73;;;1.45;;
18280;SDS011;9266;51.132;17.062;2022-09-09T13:55:31;2.30;;;1.50;;
18280;SDS011;9266;51.132;17.062;2022-09-09T13:57:58;3.35;;;1.95;;
18280;SDS011;9266;51.132;17.062;2022-09-09T14:00:28;4.63;;;2.17;;
18280;SDS011;9266;51.132;17.062;2022-09-09T14:02:57;4.22;;;2.20;;
18280;SDS011;9266;51.132;17.062;2022-09-09T14:05:26;2.17;;;1.60;;
18280;SDS011;9266;51.132;17.062;2022-09-09T14:07:54;3.47;;;2.10;;
18280;SDS011;9266;51.132;17.062;2022-09-09T14:10:21;2.17;;;1.83;;
18280;SDS011;9266;51.132;17.062;2022-09-09T14:12:48;4.18;;;2.05;;
18280;SDS011;9266;51.132;17.062;2022-09-09T14:15:16;3.80;;;2.05;;
18280;SDS011;9266;51.132;17.062;2022-09-09T14:17:45;2.92;;;2.05;;
18280;SDS011;9266;51.132;17.062;2022-09-09T14:20:15;2.50;;;1.98;;
18280;SDS011;9266;51.132;17.062;2022-09-09T14:22:42;4.13;;;2.97;;
18280;SDS011;9266;51.132;17.062;2022-09-09T14:25:10;4.22;;;2.00;;
18280;SDS011;9266;51.132;17.062;2022-09-09T14:27:38;3.75;;;2.22;;
18280;SDS011;9266;51.132;17.062;2022-09-09T14:30:05;2.75;;;2.40;;
18280;SDS011;9266;51.132;17.062;2022-09-09T14:32:33;3.83;;;2.13;;
18280;SDS011;9266;51.132;17.062;2022-09-09T14:35:00;3.28;;;2.00;;
18280;SDS011;9266;51.132;17.062;2022-09-09T14:37:29;2.88;;;2.35;;
18280;SDS011;9266;51.132;17.062;2022-09-09T14:39:57;4.75;;;2.30;;
18280;SDS011;9266;51.132;17.062;2022-09-09T14:42:24;3.83;;;1.98;;
18280;SDS011;9266;51.132;17.062;2022-09-09T14:44:51;2.88;;;2.22;;
18280;SDS011;9266;51.132;17.062;2022-09-09T14:47:18;4.18;;;2.00;;
18280;SDS011;9266;51.132;17.062;2022-09-09T14:49:46;4.18;;;2.00;;
18280;SDS011;9266;51.132;17.062;2022-09-09T14:52:15;4.30;;;2.20;;
18280;SDS011;9266;51.132;17.062;2022-09-09T14:54:44;2.28;;;2.00;;
18280;SDS011;9266;51.132;17.062;2022-09-09T14:57:11;4.93;;;2.47;;
18280;SDS011;9266;51.132;17.062;2022-09-09T14:59:39;2.88;;;2.00;;
18280;SDS011;9266;51.132;17.062;2022-09-09T15:02:07;3.70;;;2.13;;
18280;SDS011;9266;51.132;17.062;2022-09-09T15:04:35;5.60;;;2.10;;
18280;SDS011;9266;51.132;17.062;2022-09-09T15:07:05;2.20;;;2.00;;
18280;SDS011;9266;51.132;17.062;2022-09-09T15:09:32;2.63;;;2.00;;
18280;SDS011;9266;51.132;17.062;2022-09-09T15:12:01;3.15;;;2.00;;
18280;SDS011;9266;51.132;17.062;2022-09-09T15:14:29;2.25;;;2.00;;
18280;SDS011;9266;51.132;17.062;2022-09-09T15:16:56;2.95;;;2.10;;
18280;SDS011;9266;51.132;17.062;2022-09-09T15:19:24;3.13;;;2.40;;
18280;SDS011;9266;51.132;17.062;2022-09-09T15:21:51;3.05;;;2.15;;
18280;SDS011;9266;51.132;17.062;2022-09-09T15:24:19;4.50;;;2.42;;
18280;SDS011;9266;51.132;17.062;2022-09-09T15:26:47;3.78;;;2.40;;
18280;SDS011;9266;51.132;17.062;2022-09-09T15:29:16;6.50;;;2.50;;
18280;SDS011;9266;51.132;17.062;2022-09-09T15:31:44;3.70;;;2.33;;
18280;SDS011;9266;51.132;17.062;2022-09-09T15:34:11;4.60;;;2.25;;
18280;SDS011;9266;51.132;17.062;2022-09-09T15:36:40;4.55;;;2.42;;
18280;SDS011;9266;51.132;17.062;2022-09-09T15:39:09;4.22;;;2.40;;
18280;SDS011;9266;51.132;17.062;2022-09-09T15:41:40;5.93;;;2.88;;
18280;SDS011;9266;51.132;17.062;2022-09-09T15:44:08;9.85;;;4.80;;
18280;SDS011;9266;51.132;17.062;2022-09-09T15:46:39;5.07;;;2.75;;
18280;SDS011;9266;51.132;17.062;2022-09-09T15:49:09;7.93;;;3.60;;
18280;SDS011;9266;51.132;17.062;2022-09-09T15:51:38;5.65;;;3.13;;
18280;SDS011;9266;51.132;17.062;2022-09-09T15:54:07;4.18;;;2.83;;
18280;SDS011;9266;51.132;17.062;2022-09-09T15:56:35;3.27;;;2.43;;
18280;SDS011;9266;51.132;17.062;2022-09-09T15:59:02;3.95;;;2.63;;
18280;SDS011;9266;51.132;17.062;2022-09-09T16:01:30;3.45;;;2.40;;
18280;SDS011;9266;51.132;17.062;2022-09-09T16:04:00;3.90;;;2.60;;
18280;SDS011;9266;51.132;17.062;2022-09-09T16:06:27;4.77;;;2.50;;
18280;SDS011;9266;51.132;17.062;2022-09-09T16:08:56;5.13;;;2.90;;
18280;SDS011;9266;51.132;17.062;2022-09-09T16:11:26;6.10;;;2.70;;
18280;SDS011;9266;51.132;17.062;2022-09-09T16:13:54;4.70;;;2.47;;
18280;SDS011;9266;51.132;17.062;2022-09-09T16:16:23;6.07;;;3.17;;
18280;SDS011;9266;51.132;17.062;2022-09-09T16:18:52;4.80;;;2.90;;
18280;SDS011;9266;51.132;17.062;2022-09-09T16:21:22;4.77;;;3.00;;
18280;SDS011;9266;51.132;17.062;2022-09-09T16:23:51;5.10;;;3.10;;
18280;SDS011;9266;51.132;17.062;2022-09-09T16:26:19;4.00;;;3.10;;
18280;SDS011;9266;51.132;17.062;2022-09-09T16:28:47;4.67;;;3.50;;
18280;SDS011;9266;51.132;17.062;2022-09-09T16:31:16;5.93;;;3.40;;
18280;SDS011;9266;51.132;17.062;2022-09-09T16:33:44;7.83;;;5.13;;
18280;SDS011;9266;51.132;17.062;2022-09-09T16:36:14;9.90;;;4.53;;
18280;SDS011;9266;51.132;17.062;2022-09-09T16:38:44;8.40;;;4.33;;
18280;SDS011;9266;51.132;17.062;2022-09-09T16:41:12;3.83;;;3.10;;
18280;SDS011;9266;51.132;17.062;2022-09-09T16:43:41;6.27;;;3.63;;
18280;SDS011;9266;51.132;17.062;2022-09-09T16:46:12;5.93;;;4.27;;
18280;SDS011;9266;51.132;17.062;2022-09-09T16:48:41;6.33;;;4.30;;
18280;SDS011;9266;51.132;17.062;2022-09-09T16:51:13;7.60;;;4.20;;
18280;SDS011;9266;51.132;17.062;2022-09-09T16:53:41;10.80;;;3.97;;
18280;SDS011;9266;51.132;17.062;2022-09-09T16:56:11;6.70;;;3.70;;
18280;SDS011;9266;51.132;17.062;2022-09-09T16:58:40;4.67;;;3.57;;
18280;SDS011;9266;51.132;17.062;2022-09-09T17:01:10;7.03;;;3.60;;
18280;SDS011;9266;51.132;17.062;2022-09-09T17:03:39;3.87;;;3.30;;
18280;SDS011;9266;51.132;17.062;2022-09-09T17:06:08;5.57;;;3.40;;
18280;SDS011;9266;51.132;17.062;2022-09-09T17:08:36;5.93;;;3.77;;
18280;SDS011;9266;51.132;17.062;2022-09-09T17:11:12;4.93;;;3.47;;
18280;SDS011;9266;51.132;17.062;2022-09-09T17:13:40;5.87;;;3.23;;
18280;SDS011;9266;51.132;17.062;2022-09-09T17:16:08;5.50;;;3.43;;
18280;SDS011;9266;51.132;17.062;2022-09-09T17:18:36;5.43;;;3.50;;
18280;SDS011;9266;51.132;17.062;2022-09-09T17:21:05;3.90;;;3.33;;
18280;SDS011;9266;51.132;17.062;2022-09-09T17:23:33;4.20;;;3.30;;
18280;SDS011;9266;51.132;17.062;2022-09-09T17:26:03;4.00;;;3.50;;
18280;SDS011;9266;51.132;17.062;2022-09-09T17:28:34;4.23;;;3.00;;
18280;SDS011;9266;51.132;17.062;2022-09-09T17:31:02;4.90;;;3.60;;
18280;SDS011;9266;51.132;17.062;2022-09-09T17:33:31;5.43;;;3.77;;
18280;SDS011;9266;51.132;17.062;2022-09-09T17:36:00;5.50;;;4.00;;
18280;SDS011;9266;51.132;17.062;2022-09-09T17:38:31;4.97;;;3.87;;
18280;SDS011;9266;51.132;17.062;2022-09-09T17:41:02;6.10;;;4.10;;
18280;SDS011;9266;51.132;17.062;2022-09-09T17:43:31;5.87;;;4.40;;
18280;SDS011;9266;51.132;17.062;2022-09-09T17:46:06;5.37;;;4.00;;
18280;SDS011;9266;51.132;17.062;2022-09-09T17:48:33;7.13;;;4.63;;
18280;SDS011;9266;51.132;17.062;2022-09-09T17:51:02;6.47;;;4.33;;
18280;SDS011;9266;51.132;17.062;2022-09-09T17:53:30;4.40;;;3.93;;
18280;SDS011;9266;51.132;17.062;2022-09-09T17:56:01;6.87;;;4.37;;
18280;SDS011;9266;51.132;17.062;2022-09-09T17:58:29;7.17;;;4.53;;
18280;SDS011;9266;51.132;17.062;2022-09-09T18:01:00;6.97;;;4.60;;
18280;SDS011;9266;51.132;17.062;2022-09-09T18:03:30;7.00;;;4.37;;
18280;SDS011;9266;51.132;17.062;2022-09-09T18:05:59;5.37;;;4.33;;
18280;SDS011;9266;51.132;17.062;2022-09-09T18:08:27;7.93;;;4.77;;
18280;SDS011;9266;51.132;17.062;2022-09-09T18:10:55;6.60;;;4.53;;
18280;SDS011;9266;51.132;17.062;2022-09-09T18:13:22;6.37;;;4.47;;
18280;SDS011;9266;51.132;17.062;2022-09-09T18:15:49;6.23;;;5.10;;
18280;SDS011;9266;51.132;17.062;2022-09-09T18:18:17;10.43;;;6.80;;
18280;SDS011;9266;51.132;17.062;2022-09-09T18:20:45;9.23;;;6.90;;
18280;SDS011;9266;51.132;17.062;2022-09-09T18:23:21;9.47;;;5.80;;
18280;SDS011;9266;51.132;17.062;2022-09-09T18:25:49;7.77;;;5.00;;
18280;SDS011;9266;51.132;17.062;2022-09-09T18:28:16;23.70;;;10.10;;
18280;SDS011;9266;51.132;17.062;2022-09-09T18:30:44;10.73;;;6.70;;
18280;SDS011;9266;51.132;17.062;2022-09-09T18:33:13;10.63;;;7.00;;
18280;SDS011;9266;51.132;17.062;2022-09-09T18:35:40;13.47;;;5.90;;
18280;SDS011;9266;51.132;17.062;2022-09-09T18:38:09;8.60;;;5.27;;
18280;SDS011;9266;51.132;17.062;2022-09-09T18:40:36;5.97;;;4.80;;
18280;SDS011;9266;51.132;17.062;2022-09-09T18:43:03;8.87;;;5.13;;
18280;SDS011;9266;51.132;17.062;2022-09-09T18:45:34;9.97;;;5.43;;
18280;SDS011;9266;51.132;17.062;2022-09-09T18:48:02;7.77;;;5.17;;
18280;SDS011;9266;51.132;17.062;2022-09-09T18:50:29;7.83;;;4.93;;
18280;SDS011;9266;51.132;17.062;2022-09-09T18:52:57;5.47;;;4.00;;
18280;SDS011;9266;51.132;17.062;2022-09-09T18:55:25;8.10;;;4.53;;
18280;SDS011;9266;51.132;17.062;2022-09-09T18:57:54;8.60;;;5.03;;
18280;SDS011;9266;51.132;17.062;2022-09-09T19:00:23;8.77;;;4.73;;
18280;SDS011;9266;51.132;17.062;2022-09-09T19:02:53;8.67;;;4.77;;
18280;SDS011;9266;51.132;17.062;2022-09-09T19:05:20;5.87;;;4.37;;
18280;SDS011;9266;51.132;17.062;2022-09-09T19:07:47;7.87;;;5.30;;
18280;SDS011;9266;51.132;17.062;2022-09-09T19:10:15;7.47;;;4.70;;
18280;SDS011;9266;51.132;17.062;2022-09-09T19:12:43;8.00;;;4.60;;
18280;SDS011;9266;51.132;17.062;2022-09-09T19:15:11;7.57;;;4.87;;
18280;SDS011;9266;51.132;17.062;2022-09-09T19:17:38;10.53;;;5.63;;
18280;SDS011;9266;51.132;17.062;2022-09-09T19:20:05;8.57;;;4.93;;
18280;SDS011;9266;51.132;17.062;2022-09-09T19:22:34;10.50;;;4.43;;
18280;SDS011;9266;51.132;17.062;2022-09-09T19:25:01;9.47;;;4.67;;
18280;SDS011;9266;51.132;17.062;2022-09-09T19:27:28;5.37;;;4.67;;
18280;SDS011;9266;51.132;17.062;2022-09-09T19:29:57;6.80;;;4.53;;
18280;SDS011;9266;51.132;17.062;2022-09-09T19:32:25;5.63;;;4.37;;
18280;SDS011;9266;51.132;17.062;2022-09-09T19:34:52;7.33;;;4.40;;
18280;SDS011;9266;51.132;17.062;2022-09-09T19:37:19;8.60;;;4.60;;
18280;SDS011;9266;51.132;17.062;2022-09-09T19:39:48;5.87;;;3.90;;
18280;SDS011;9266;51.132;17.062;2022-09-09T19:42:16;4.67;;;3.67;;
18280;SDS011;9266;51.132;17.062;2022-09-09T19:44:43;6.33;;;3.93;;
18280;SDS011;9266;51.132;17.062;2022-09-09T19:47:12;7.63;;;3.87;;
18280;SDS011;9266;51.132;17.062;2022-09-09T19:49:39;6.20;;;3.90;;
18280;SDS011;9266;51.132;17.062;2022-09-09T19:52:06;6.70;;;3.97;;
18280;SDS011;9266;51.132;17.062;2022-09-09T19:54:34;4.47;;;3.90;;
18280;SDS011;9266;51.132;17.062;2022-09-09T19:57:01;4.93;;;3.60;;
18280;SDS011;9266;51.132;17.062;2022-09-09T19:59:28;4.47;;;3.83;;
18280;SDS011;9266;51.132;17.062;2022-09-09T20:01:55;6.07;;;4.07;;
18280;SDS011;9266;51.132;17.062;2022-09-09T20:04:24;6.80;;;4.50;;
18280;SDS011;9266;51.132;17.062;2022-09-09T20:06:52;7.07;;;4.60;;
18280;SDS011;9266;51.132;17.062;2022-09-09T20:09:20;8.00;;;4.97;;
18280;SDS011;9266;51.132;17.062;2022-09-09T20:11:49;4.87;;;4.37;;
18280;SDS011;9266;51.132;17.062;2022-09-09T20:14:17;8.27;;;4.23;;
18280;SDS011;9266;51.132;17.062;2022-09-09T20:16:44;7.83;;;4.27;;
18280;SDS011;9266;51.132;17.062;2022-09-09T20:19:14;6.87;;;4.17;;
18280;SDS011;9266;51.132;17.062;2022-09-09T20:21:43;6.93;;;4.47;;
18280;SDS011;9266;51.132;17.062;2022-09-09T20:24:13;7.93;;;4.57;;
18280;SDS011;9266;51.132;17.062;2022-09-09T20:26:42;10.47;;;4.70;;
18280;SDS011;9266;51.132;17.062;2022-09-09T20:29:11;8.47;;;4.73;;
18280;SDS011;9266;51.132;17.062;2022-09-09T20:31:39;7.67;;;4.40;;
18280;SDS011;9266;51.132;17.062;2022-09-09T20:34:08;9.43;;;5.07;;
18280;SDS011;9266;51.132;17.062;2022-09-09T20:36:37;8.67;;;4.37;;
18280;SDS011;9266;51.132;17.062;2022-09-09T20:39:07;11.00;;;4.53;;
18280;SDS011;9266;51.132;17.062;2022-09-09T20:41:36;7.27;;;4.60;;
18280;SDS011;9266;51.132;17.062;2022-09-09T20:44:06;7.33;;;4.73;;
18280;SDS011;9266;51.132;17.062;2022-09-09T20:46:37;5.67;;;4.40;;
18280;SDS011;9266;51.132;17.062;2022-09-09T20:49:07;6.00;;;4.30;;
18280;SDS011;9266;51.132;17.062;2022-09-09T20:51:35;7.53;;;4.00;;
18280;SDS011;9266;51.132;17.062;2022-09-09T20:54:03;6.90;;;4.33;;
18280;SDS011;9266;51.132;17.062;2022-09-09T20:56:34;7.47;;;4.00;;
18280;SDS011;9266;51.132;17.062;2022-09-09T20:59:03;6.03;;;4.53;;
18280;SDS011;9266;51.132;17.062;2022-09-09T21:01:30;5.33;;;3.90;;
18280;SDS011;9266;51.132;17.062;2022-09-09T21:03:58;6.07;;;4.13;;
18280;SDS011;9266;51.132;17.062;2022-09-09T21:06:25;6.17;;;4.27;;
18280;SDS011;9266;51.132;17.062;2022-09-09T21:08:53;6.37;;;4.90;;
18280;SDS011;9266;51.132;17.062;2022-09-09T21:11:20;7.67;;;4.70;;
18280;SDS011;9266;51.132;17.062;2022-09-09T21:13:49;7.27;;;5.10;;
18280;SDS011;9266;51.132;17.062;2022-09-09T21:16:16;5.37;;;4.43;;
18280;SDS011;9266;51.132;17.062;2022-09-09T21:18:45;8.67;;;4.77;;
18280;SDS011;9266;51.132;17.062;2022-09-09T21:21:12;5.50;;;4.30;;
18280;SDS011;9266;51.132;17.062;2022-09-09T21:23:40;7.90;;;5.50;;
18280;SDS011;9266;51.132;17.062;2022-09-09T21:26:08;9.00;;;5.20;;
18280;SDS011;9266;51.132;17.062;2022-09-09T21:28:35;8.03;;;4.80;;
18280;SDS011;9266;51.132;17.062;2022-09-09T21:31:05;8.13;;;4.67;;
18280;SDS011;9266;51.132;17.062;2022-09-09T21:33:33;6.97;;;5.00;;
18280;SDS011;9266;51.132;17.062;2022-09-09T21:36:01;8.30;;;4.20;;
18280;SDS011;9266;51.132;17.062;2022-09-09T21:38:29;9.83;;;5.33;;
18280;SDS011;9266;51.132;17.062;2022-09-09T21:41:00;8.30;;;4.67;;
18280;SDS011;9266;51.132;17.062;2022-09-09T21:43:28;5.23;;;3.73;;
18280;SDS011;9266;51.132;17.062;2022-09-09T21:45:55;4.67;;;3.53;;
18280;SDS011;9266;51.132;17.062;2022-09-09T21:48:24;7.70;;;4.20;;
18280;SDS011;9266;51.132;17.062;2022-09-09T21:50:51;5.90;;;3.10;;
18280;SDS011;9266;51.132;17.062;2022-09-09T21:53:19;3.37;;;3.07;;
18280;SDS011;9266;51.132;17.062;2022-09-09T21:55:47;5.17;;;3.20;;
18280;SDS011;9266;51.132;17.062;2022-09-09T21:58:15;6.17;;;3.50;;
18280;SDS011;9266;51.132;17.062;2022-09-09T22:00:43;5.97;;;3.80;;
18280;SDS011;9266;51.132;17.062;2022-09-09T22:03:11;3.67;;;3.33;;
18280;SDS011;9266;51.132;17.062;2022-09-09T22:05:41;4.23;;;3.83;;